createdAt,value
2022-11-16T00:02:33.310Z,55.60
2022-11-16T00:06:41.316Z,63.90
2022-11-16T00:10:49.222Z,65.00
2022-11-16T00:14:57.491Z,56.50
2022-11-16T00:19:07.340Z,57.90
2022-11-16T00:23:15.113Z,53.80
2022-11-16T00:27:22.989Z,61.70
2022-11-16T00:31:30.761Z,58.60
2022-11-16T00:35:42.504Z,59.30
2022-11-16T00:39:50.143Z,55.90
2022-11-16T00:43:58.223Z,62.20
2022-11-16T00:48:06.018Z,59.40
2022-11-16T00:52:14.058Z,58.30
2022-11-16T00:56:22.069Z,72.60
2022-11-16T01:00:31.654Z,76.20
2022-11-16T01:04:39.807Z,69.80
2022-11-16T01:08:48.399Z,60.70
2022-11-16T01:12:56.498Z,59.60
2022-11-16T01:17:04.956Z,65.80
2022-11-16T01:21:12.685Z,70.60
2022-11-16T01:25:21.487Z,64.40
2022-11-16T01:29:30.552Z,64.50
2022-11-16T01:33:38.719Z,65.10
2022-11-16T01:37:45.954Z,61.60
2022-11-16T01:41:55.054Z,56.80
2022-11-16T01:46:02.540Z,60.00
2022-11-16T01:50:17.411Z,62.70
2022-11-16T01:54:26.623Z,65.50
2022-11-16T01:58:35.353Z,68.60
2022-11-16T02:02:43.666Z,60.50
2022-11-16T02:07:01.299Z,65.80
2022-11-16T02:11:32.971Z,71.00
2022-11-16T02:15:44.860Z,63.60
2022-11-16T02:20:08.537Z,62.00
2022-11-16T02:24:45.180Z,57.90
2022-11-16T02:29:06.135Z,60.40
2022-11-16T02:33:16.880Z,66.30
2022-11-16T02:37:26.391Z,70.30
2022-11-16T02:41:36.748Z,65.50
2022-11-16T02:45:47.631Z,57.20
2022-11-16T02:49:59.510Z,60.20
2022-11-16T02:54:13.252Z,56.40
2022-11-16T02:58:24.845Z,57.60
2022-11-16T03:02:41.814Z,59.20
2022-11-16T03:06:51.037Z,60.00
2022-11-16T03:11:19.689Z,63.00
2022-11-16T03:15:27.642Z,62.50
2022-11-16T03:19:41.309Z,63.60
2022-11-16T03:23:49.756Z,63.60
2022-11-16T03:28:01.321Z,66.10
2022-11-16T03:32:17.638Z,67.10
2022-11-16T03:36:27.817Z,60.60
2022-11-16T03:40:37.353Z,59.40
2022-11-16T03:44:45.720Z,58.60
2022-11-16T03:48:59.661Z,72.30
2022-11-16T03:53:07.894Z,78.10
2022-11-16T03:57:18.757Z,70.50
2022-11-16T04:01:26.678Z,67.10
2022-11-16T04:05:51.802Z,64.00
2022-11-16T04:10:16.846Z,67.50
2022-11-16T04:14:44.400Z,73.90
2022-11-16T04:19:10.213Z,72.20
2022-11-16T04:23:36.640Z,75.10
2022-11-16T04:28:02.295Z,73.70
2022-11-16T04:32:28.137Z,72.40
2022-11-16T04:36:53.132Z,72.20
2022-11-16T04:41:00.908Z,89.90
2022-11-16T04:45:27.788Z,78.30
2022-11-16T04:49:35.387Z,77.90
2022-11-16T04:53:42.807Z,69.50
2022-11-16T04:57:50.638Z,67.10
2022-11-16T05:02:12.235Z,71.90
2022-11-16T05:06:20.066Z,88.80
2022-11-16T05:10:27.820Z,82.70
2022-11-16T05:14:38.006Z,69.60
2022-11-16T05:19:06.177Z,64.00
2022-11-16T05:23:27.814Z,62.30
2022-11-16T05:27:35.858Z,59.00
2022-11-16T05:31:44.737Z,58.70
2022-11-16T05:35:54.040Z,62.00
2022-11-16T05:40:01.578Z,55.60
2022-11-16T05:44:10.427Z,47.10
2022-11-16T05:48:18.152Z,54.30
2022-11-16T05:52:25.596Z,59.00
2022-11-16T05:56:35.051Z,60.00
2022-11-16T06:00:44.244Z,53.30
2022-11-16T06:04:52.407Z,54.40
2022-11-16T06:09:00.158Z,50.10
2022-11-16T06:13:08.289Z,53.30
2022-11-16T06:17:16.082Z,55.70
2022-11-16T06:21:25.531Z,56.80
2022-11-16T06:25:33.666Z,52.20
2022-11-16T06:29:41.718Z,48.00
2022-11-16T06:33:49.454Z,47.70
2022-11-16T06:37:57.328Z,44.90
2022-11-16T06:42:05.274Z,49.40
2022-11-16T06:46:12.866Z,55.10
2022-11-16T06:50:21.364Z,52.70
2022-11-16T06:54:28.977Z,52.80
2022-11-16T06:58:37.000Z,48.80
2022-11-16T07:02:44.588Z,52.90
2022-11-16T07:06:52.669Z,53.90
2022-11-16T07:11:05.136Z,54.80
2022-11-16T07:15:13.739Z,54.60
2022-11-16T07:19:21.000Z,53.40
2022-11-16T07:23:29.120Z,49.70
2022-11-16T07:27:36.771Z,54.40
2022-11-16T07:31:44.935Z,53.60
2022-11-16T07:35:52.791Z,58.70
2022-11-16T07:40:00.999Z,63.90
2022-11-16T07:44:17.656Z,55.30
2022-11-16T07:48:28.140Z,54.40
2022-11-16T07:52:46.611Z,53.60
2022-11-16T07:57:00.293Z,49.10
2022-11-16T08:01:12.594Z,51.50
2022-11-16T08:05:24.338Z,57.80
2022-11-16T08:09:39.719Z,64.20
2022-11-16T08:13:52.293Z,64.50
2022-11-16T08:18:03.534Z,58.90
2022-11-16T08:22:13.135Z,62.70
2022-11-16T08:26:25.567Z,73.30
2022-11-16T08:30:39.393Z,62.60
2022-11-16T08:34:46.646Z,61.00
2022-11-16T08:38:54.537Z,51.70
2022-11-16T08:43:06.085Z,54.50
2022-11-16T08:47:16.386Z,55.60
2022-11-16T08:51:28.686Z,58.30
2022-11-16T08:55:36.663Z,56.60
2022-11-16T08:59:47.715Z,56.30
2022-11-16T09:04:07.951Z,57.60
2022-11-16T09:08:21.917Z,54.60
2022-11-16T09:12:36.456Z,51.30
2022-11-16T09:16:44.313Z,54.10
2022-11-16T09:20:58.293Z,60.00
2022-11-16T09:25:11.228Z,61.60
2022-11-16T09:29:22.856Z,57.20
2022-11-16T09:33:37.366Z,55.80
2022-11-16T09:37:52.538Z,54.20
2022-11-16T09:42:19.770Z,54.60
2022-11-16T09:46:31.133Z,68.10
2022-11-16T09:50:45.716Z,60.10
2022-11-16T09:54:54.701Z,70.50
2022-11-16T09:59:07.396Z,68.30
2022-11-16T10:03:15.863Z,61.70
2022-11-16T10:07:26.924Z,57.20
2022-11-16T10:11:48.520Z,53.60
2022-11-16T10:16:04.383Z,49.00
2022-11-16T10:20:27.627Z,55.10
2022-11-16T10:24:47.590Z,51.90
2022-11-16T10:29:05.295Z,43.50
2022-11-16T10:33:18.646Z,52.80
2022-11-16T10:37:29.565Z,56.10
2022-11-16T10:41:41.510Z,58.00
2022-11-16T10:45:53.415Z,53.90
2022-11-16T10:50:03.706Z,49.10
2022-11-16T10:54:17.784Z,56.20
2022-11-16T10:58:25.281Z,49.60
2022-11-16T11:02:35.705Z,53.30
2022-11-16T11:06:43.603Z,51.30
2022-11-16T11:11:03.430Z,45.50
2022-11-16T11:15:27.062Z,46.70
2022-11-16T11:19:35.008Z,45.10
2022-11-16T11:23:45.850Z,48.20
2022-11-16T11:27:54.635Z,46.50
2022-11-16T11:32:09.960Z,44.40
2022-11-16T11:36:22.175Z,40.30
2022-11-16T11:40:30.727Z,41.40
2022-11-16T11:44:50.027Z,42.40
2022-11-16T11:49:02.579Z,47.90
2022-11-16T11:53:15.885Z,44.80
2022-11-16T11:57:25.829Z,43.50
2022-11-16T12:02:00.621Z,37.10
2022-11-16T12:06:13.579Z,39.20
2022-11-16T12:10:27.151Z,34.10
2022-11-16T12:14:56.671Z,45.60
2022-11-16T12:19:32.406Z,41.80
2022-11-16T12:23:54.269Z,41.60
2022-11-16T12:28:15.487Z,36.40
2022-11-16T12:32:40.347Z,39.30
2022-11-16T12:36:56.065Z,37.70
2022-11-16T12:41:15.422Z,45.60
2022-11-16T12:45:46.474Z,42.40
2022-11-16T12:50:09.484Z,38.30
2022-11-16T12:54:30.646Z,42.00
2022-11-16T12:58:52.842Z,50.00
2022-11-16T13:03:13.110Z,50.60
2022-11-16T13:07:24.980Z,44.60
2022-11-16T13:11:34.758Z,42.10
2022-11-16T13:15:46.400Z,42.40
2022-11-16T13:20:15.549Z,44.70
2022-11-16T13:24:37.244Z,47.60
2022-11-16T13:28:50.726Z,41.90
2022-11-16T13:33:12.325Z,41.30
2022-11-16T13:37:44.030Z,34.20
2022-11-16T13:41:53.165Z,36.50
2022-11-16T13:46:03.077Z,36.30
2022-11-16T13:50:21.993Z,38.50
2022-11-16T13:54:45.354Z,38.20
2022-11-16T13:58:56.318Z,33.70
2022-11-16T14:03:28.486Z,32.00
2022-11-16T14:07:40.705Z,35.10
2022-11-16T14:11:49.193Z,29.70
2022-11-16T14:16:44.371Z,33.00
2022-11-16T14:20:59.002Z,34.90
2022-11-16T14:25:14.577Z,35.20
2022-11-16T14:29:34.589Z,34.80
2022-11-16T14:33:42.556Z,33.50
2022-11-16T14:38:00.349Z,33.40
2022-11-16T14:42:18.382Z,35.70
2022-11-16T14:46:32.409Z,32.20
2022-11-16T14:50:41.186Z,31.90
2022-11-16T14:54:54.994Z,30.90
2022-11-16T14:59:04.859Z,29.90
2022-11-16T15:03:15.093Z,30.20
2022-11-16T15:07:23.474Z,30.90
2022-11-16T15:11:46.210Z,31.80
2022-11-16T15:16:11.271Z,35.40
2022-11-16T15:20:22.233Z,34.40
2022-11-16T15:24:32.341Z,28.60
2022-11-16T15:28:48.711Z,29.30
2022-11-16T15:32:58.228Z,29.60
2022-11-16T15:37:05.917Z,29.50
2022-11-16T15:41:13.719Z,29.30
2022-11-16T15:45:25.702Z,22.30
2022-11-16T15:49:35.581Z,22.30
2022-11-16T15:53:44.340Z,20.80
2022-11-16T15:58:02.348Z,22.50
2022-11-16T16:02:20.261Z,22.50
2022-11-16T16:06:48.841Z,18.80
2022-11-16T16:11:06.372Z,21.40
2022-11-16T16:15:36.904Z,19.60
2022-11-16T16:19:46.530Z,18.50
2022-11-16T16:23:57.344Z,17.20
2022-11-16T16:28:05.439Z,14.50
2022-11-16T16:32:26.900Z,17.80
2022-11-16T16:36:35.303Z,14.60
2022-11-16T16:40:46.655Z,17.10
2022-11-16T16:44:54.627Z,16.90
2022-11-16T16:49:02.660Z,14.90
2022-11-16T16:53:13.191Z,13.80
2022-11-16T16:57:21.310Z,14.50
2022-11-16T17:01:29.370Z,17.10
2022-11-16T17:05:38.902Z,15.50
2022-11-16T17:09:46.514Z,14.90
2022-11-16T17:13:54.505Z,15.30
2022-11-16T17:18:03.089Z,17.30
2022-11-16T17:22:11.227Z,14.80
2022-11-16T17:26:20.035Z,13.10
2022-11-16T17:30:29.142Z,16.00
2022-11-16T17:34:38.587Z,15.80
2022-11-16T17:38:47.076Z,17.90
2022-11-16T17:42:54.764Z,15.40
2022-11-16T17:47:02.225Z,15.90
2022-11-16T17:51:09.995Z,16.20
2022-11-16T17:55:18.459Z,15.50
2022-11-16T17:59:29.456Z,12.70
2022-11-16T18:03:40.542Z,14.00
2022-11-16T18:07:48.503Z,12.90
2022-11-16T18:11:56.007Z,13.90
2022-11-16T18:16:08.182Z,13.10
2022-11-16T18:20:16.775Z,12.30
2022-11-16T18:24:24.709Z,12.00
2022-11-16T18:28:34.959Z,12.90
2022-11-16T18:32:42.902Z,16.30
2022-11-16T18:36:52.286Z,12.10
2022-11-16T18:41:19.959Z,13.20
2022-11-16T18:45:28.179Z,11.50
2022-11-16T18:49:35.483Z,9.50
2022-11-16T18:53:43.580Z,9.30
2022-11-16T18:57:50.987Z,10.40
2022-11-16T19:02:00.089Z,10.60
2022-11-16T19:06:09.254Z,10.10
2022-11-16T19:10:17.373Z,9.70
2022-11-16T19:14:25.778Z,9.50
2022-11-16T19:18:33.507Z,10.50
2022-11-16T19:22:41.293Z,8.00
2022-11-16T19:26:48.915Z,10.20
2022-11-16T19:30:56.883Z,9.00
2022-11-16T19:35:04.956Z,11.20
2022-11-16T19:39:12.753Z,9.10
2022-11-16T19:43:22.017Z,9.80
2022-11-16T19:47:29.654Z,9.50
2022-11-16T19:51:37.354Z,8.40
2022-11-16T19:55:46.187Z,10.60
2022-11-16T19:59:53.942Z,8.60
2022-11-16T20:04:03.527Z,8.00
2022-11-16T20:08:13.142Z,8.20
2022-11-16T20:12:20.990Z,9.50
2022-11-16T20:16:36.995Z,13.00
2022-11-16T20:20:46.508Z,11.60
2022-11-16T20:24:54.876Z,12.50
2022-11-16T20:29:03.638Z,11.20
2022-11-16T20:33:11.790Z,11.10
2022-11-16T20:37:20.427Z,9.50
2022-11-16T20:41:29.353Z,11.40
2022-11-16T20:45:36.920Z,12.60
2022-11-16T20:49:44.553Z,11.70
2022-11-16T20:53:53.308Z,12.60
2022-11-16T20:58:01.099Z,11.50
2022-11-16T21:02:10.924Z,11.50
2022-11-16T21:06:19.065Z,14.70
2022-11-16T21:10:27.566Z,17.10
2022-11-16T21:14:35.029Z,15.30
2022-11-16T21:18:43.266Z,13.40
2022-11-16T21:22:52.313Z,12.90
2022-11-16T21:26:59.625Z,12.90
2022-11-16T21:31:08.484Z,12.70
2022-11-16T21:35:15.938Z,14.60
2022-11-16T21:39:23.618Z,13.40
2022-11-16T21:43:34.213Z,14.90
2022-11-16T21:47:43.194Z,11.20
2022-11-16T21:51:50.816Z,11.60
2022-11-16T21:55:58.600Z,11.10
2022-11-16T22:00:08.442Z,14.80
2022-11-16T22:04:33.615Z,13.60
2022-11-16T22:08:41.500Z,10.50
2022-11-16T22:12:49.304Z,11.50
2022-11-16T22:16:56.702Z,9.90
2022-11-16T22:21:05.602Z,10.90
2022-11-16T22:25:14.392Z,14.00
2022-11-16T22:29:22.427Z,12.20
2022-11-16T22:33:30.294Z,11.40
2022-11-16T22:37:38.809Z,10.70
2022-11-16T22:41:46.313Z,10.10
2022-11-16T22:45:57.195Z,11.70
2022-11-16T22:50:05.611Z,10.60
2022-11-16T22:54:15.841Z,9.80
2022-11-16T22:58:23.478Z,10.60
2022-11-16T23:02:31.141Z,10.40
2022-11-16T23:06:39.772Z,10.20
2022-11-16T23:11:02.246Z,11.10
2022-11-16T23:15:31.133Z,10.80
2022-11-16T23:19:56.574Z,10.40
2022-11-16T23:24:21.522Z,9.30
2022-11-16T23:28:29.347Z,9.40
2022-11-16T23:32:36.963Z,9.70
2022-11-16T23:36:44.666Z,9.70
2022-11-16T23:40:52.662Z,10.30
2022-11-16T23:45:00.165Z,10.70
2022-11-16T23:49:08.148Z,10.50
2022-11-16T23:53:16.021Z,8.90
2022-11-16T23:57:23.490Z,9.90
